• Join FlightAware (Why Join?)
  • Login
  • US Flag 
11:33AM EDT


 

Airport Tracker/Info


-or-


 

Live Flight TrackerFlight Track Log ✈ N747XJ ✈ 30-Apr-2013 ✈ KBED - KOAK

Flight Track Log - Related Links

Times and Time Zones

All times are in EDT time to prevent confusion due to time zone crossing. See the N747XJ flight status page for this flight to view local times or setup timezone preferences in your user account.

Time Position Orientation Groundspeed Altitude Reporting Facility
EDT Latitude Longitude Course Direction KTS MPH feet Rate Location/Type
12:39PM 42.4667 -71.2500 196° South 208 239 1,400  Level KA90
12:41PM 42.3986 -71.2761 196° South 209 241 4,600 2,340 Climbing Boston Center
12:42PM 42.3556 -71.3611 236° Southwest 247 284 7,400 2,760 Climbing Boston Center
12:43PM 42.3525 -71.4625 268° West 266 306 10,200 2,580 Climbing Boston Center
12:44PM 42.3472 -71.5889 267° West 303 349 12,600 2,100 Climbing Boston Center
12:45PM 42.3397 -71.7069 265° West 342 394 14,500 1,800 Climbing Boston Center
12:47PM 42.3203 -71.9908 265° West 388 447 18,100 1,800 Climbing Boston Center
12:48PM 42.3125 -72.1425 266° West 399 459 20,000 1,920 Climbing Boston Center
12:49PM 42.3025 -72.2942 265° West 410 472 22,000 1,980 Climbing Boston Center
12:50PM 42.2919 -72.4486 265° West 410 472 24,000 2,100 Climbing Boston Center
12:51PM 42.2794 -72.6056 264° West 415 478 26,300 2,400 Climbing Boston Center
12:52PM 42.2686 -72.7542 264° West 415 478 28,800 2,220 Climbing Boston Center
12:53PM 42.2578 -72.9086 265° West 415 478 30,800 1,740 Climbing Boston Center
12:54PM 42.2467 -73.0628 264° West 415 478 32,300 1,500 Climbing Boston Center
12:55PM 42.2353 -73.2225 265° West 426 490 33,800 1,380 Climbing Boston Center
12:57PM 42.2158 -73.5444 265° West 426 490 36,600 1,260 Climbing Boston Center
12:58PM 42.2036 -73.7069 264° West 432 497 37,600 840 Climbing Boston Center
12:59PM 42.1847 -73.8886 262° West 461 531 38,300 600 Climbing Boston Center
01:00PM 42.1719 -74.0789 265° West 468 539 38,800 540 Climbing Boston Center
01:01PM 42.1567 -74.2578 263° West 473 544 39,400 600 Climbing Boston Center
01:02PM 42.1458 -74.3975 264° West 479 551 40,000 660 Climbing Boston Center
01:04PM 42.1153 -74.7353 263° West 445 512 41,300 600 Climbing New York Center
01:05PM 42.0989 -74.9131 263° West 465 535 41,800 480 Climbing New York Center
01:06PM 42.0814 -75.1103 263° West 473 544 42,300 480 Climbing New York Center
01:07PM 42.0686 -75.2828 264° West 479 551 42,800 300 Climbing New York Center
01:08PM 42.0661 -75.4558 269° West 479 551 43,000 60 Climbing New York Center
01:09PM 42.0694 -75.6319 272° West 474 545 43,000  Level New York Center
01:10PM 42.0725 -75.8081 271° West 479 551 43,000  Level New York Center
01:11PM 42.0772 -75.9872 272° West 479 551 43,000  Level New York Center
01:12PM 42.0797 -76.1664 271° West 479 551 43,000  Level New York Center
01:13PM 42.0839 -76.3456 272° West 479 551 43,000  Level New York Center
01:15PM 42.0889 -76.7161 271° West 474 545 43,000  Level Cleveland Center
01:16PM 42.0925 -76.8950 272° West 479 551 43,000  Level Cleveland Center
01:17PM 42.0900 -77.0769 269° West 479 551 43,000  Level Cleveland Center
01:18PM 42.0661 -77.2572 260° West 484 557 43,000  Level Cleveland Center
01:19PM 42.0442 -77.4347 261° West 484 557 43,000  Level Cleveland Center
01:20PM 42.0239 -77.6147 261° West 484 557 43,000  Level Cleveland Center
01:21PM 41.9992 -77.7919 259° West 489 563 43,000  Level Cleveland Center
01:22PM 41.9761 -77.9717 260° West 489 563 43,000  Level Cleveland Center
01:23PM 41.9550 -78.1483 261° West 489 563 43,000  Level Cleveland Center
01:24PM 41.9333 -78.3056 260° West 489 563 43,000  Level Cleveland Center
01:25PM 41.9094 -78.4822 260° West 484 557 43,000  Level Cleveland Center
01:26PM 41.8856 -78.6642 260° West 489 563 43,000  Level Cleveland Center
01:27PM 41.8614 -78.8406 260° West 489 563 43,000  Level Cleveland Center
01:28PM 41.8350 -79.0392 260° West 489 563 43,000  Level Cleveland Center
01:29PM 41.8122 -79.2181 260° West 489 563 43,000  Level Cleveland Center
01:30PM 41.7869 -79.3772 258° West 489 563 43,000  Level Cleveland Center
01:31PM 41.7614 -79.5531 259° West 489 563 43,000  Level Cleveland Center
01:32PM 41.7317 -79.7456 258° West 489 563 43,000  Level Cleveland Center
01:33PM 41.7058 -79.9211 259° West 489 563 43,000  Level Cleveland Center
01:34PM 41.6797 -80.0967 259° West 489 563 43,000  Level Cleveland Center
01:35PM 41.6594 -80.2525 260° West 489 563 43,000  Level Cleveland Center
01:36PM 41.6283 -80.4303 257° West 489 563 43,000  Level Cleveland Center
01:37PM 41.6036 -80.5997 259° West 489 563 43,000  Level Cleveland Center
01:38PM 41.5783 -80.7747 259° West 489 563 43,000  Level Cleveland Center
01:39PM 41.5508 -80.9467 258° West 483 556 43,000  Level Cleveland Center
01:40PM 41.5231 -81.1183 258° West 483 556 43,000  Level Cleveland Center
01:41PM 41.4972 -81.2900 259° West 483 556 43,000  Level Cleveland Center
01:42PM 41.4708 -81.4589 258° West 476 548 43,000  Level Cleveland Center
01:43PM 41.4425 -81.6303 258° West 471 542 43,000  Level Cleveland Center
01:44PM 41.4156 -81.7986 258° West 471 542 43,000  Level Cleveland Center
01:45PM 41.3931 -81.9533 259° West 471 542 43,000  Level Cleveland Center
01:46PM 41.3614 -82.1406 257° West 464 534 43,000  Level Cleveland Center
01:47PM 41.3425 -82.3089 262° West 473 544 43,000  Level Cleveland Center
01:48PM 41.3208 -82.4825 261° West 473 544 43,000  Level Cleveland Center
01:49PM 41.2989 -82.6700 261° West 473 544 43,000  Level Cleveland Center
01:50PM 41.2789 -82.8378 261° West 473 544 43,000  Level Cleveland Center
01:51PM 41.2608 -83.0083 262° West 467 537 43,000  Level Cleveland Center
01:52PM 41.2383 -83.1817 260° West 467 537 43,000  Level Cleveland Center
01:53PM 41.2178 -83.3492 261° West 467 537 43,000  Level Cleveland Center
01:54PM 41.1967 -83.5222 261° West 467 537 43,000  Level Cleveland Center
01:55PM 41.1736 -83.6894 260° West 473 544 43,000  Level Cleveland Center
01:57PM 41.1289 -84.0869 262° West 472 543 43,000  Level Chicago Center
01:58PM 41.1053 -84.2606 260° West 476 548 43,000  Level Chicago Center
01:59PM 41.0822 -84.4331 260° West 475 547 43,000  Level Chicago Center
02:00PM 41.0589 -84.6064 260° West 477 549 43,000  Level Chicago Center
02:01PM 41.0353 -84.7800 260° West 478 550 43,000  Level Chicago Center
02:02PM 41.0061 -84.9881 260° West 477 549 43,000  Level Chicago Center
02:03PM 40.9828 -85.1617 260° West 478 550 43,000  Level Chicago Center
02:04PM 40.9606 -85.3358 260° West 478 550 43,000  Level Chicago Center
02:05PM 40.9386 -85.5117 261° West 481 554 43,000  Level Chicago Center
02:07PM 40.9175 -85.6872 261° West 482 555 43,000  Level Chicago Center
02:08PM 40.8950 -85.8619 260° West 482 555 43,000  Level Chicago Center
02:09PM 40.8739 -86.0392 261° West 486 559 43,000  Level Chicago Center
02:10PM 40.8506 -86.2142 260° West 485 558 43,000  Level Chicago Center
02:11PM 40.8242 -86.4244 261° West 485 558 43,000  Level Chicago Center
02:12PM 40.8003 -86.5958 260° West 479 551 43,000  Level Chicago Center
02:13PM 40.7769 -86.7711 260° West 483 556 43,000  Level Chicago Center
02:14PM 40.7544 -86.9433 260° West 479 551 43,000  Level Chicago Center
02:15PM 40.7303 -87.1183 260° West 483 556 43,000  Level Chicago Center
02:16PM 40.7064 -87.2914 260° West 482 555 43,000  Level Chicago Center
02:17PM 40.6772 -87.5008 260° West 484 557 43,000  Level Chicago Center
02:18PM 40.6528 -87.6744 260° West 483 556 43,000  Level Chicago Center
02:19PM 40.6281 -87.8486 259° West 483 556 43,000  Level Chicago Center
02:20PM 40.6025 -88.0225 259° West 483 556 43,000  Level Chicago Center
02:21PM 40.5786 -88.1967 260° West 484 557 43,000  Level Chicago Center
02:22PM 40.5653 -88.3728 264° West 484 557 43,000  Level Chicago Center
02:23PM 40.5500 -88.5489 264° West 485 558 43,000  Level Chicago Center
02:24PM 40.5314 -88.7575 263° West 481 554 43,000  Level Chicago Center
02:25PM 40.5186 -88.9078 264° West 485 558 43,000  Level Chicago Center
02:26PM 40.5000 -89.1197 263° West 484 557 43,000  Level Chicago Center
02:27PM 40.4839 -89.2989 263° West 492 566 43,000  Level Chicago Center
02:28PM 40.4675 -89.4742 263° West 483 556 43,000  Level Chicago Center
02:29PM 40.4500 -89.6503 263° West 481 554 43,000  Level Chicago Center
02:30PM 40.4331 -89.8283 263° West 484 557 43,000  Level Chicago Center
02:31PM 40.4150 -90.0072 263° West 486 559 43,000  Level Chicago Center
02:32PM 40.3983 -90.1839 263° West 488 562 43,000  Level Chicago Center
02:33PM 40.3806 -90.3608 263° West 489 563 43,000  Level Chicago Center
02:34PM 40.3636 -90.5361 263° West 486 559 43,000  Level Chicago Center
02:35PM 40.3411 -90.7469 262° West 487 560 43,000  Level Chicago Center
02:36PM 40.3236 -90.9217 263° West 485 558 43,000  Level Chicago Center
02:37PM 40.3169 -90.9922 263° West 486 559 43,000  Level Kansas City Center
02:38PM 40.2969 -91.1722 262° West 486 559 43,000  Level Kansas City Center
02:39PM 40.2761 -91.3464 261° West 487 560 43,000  Level Kansas City Center
02:40PM 40.2581 -91.5200 262° West 486 559 43,000  Level Kansas City Center
02:41PM 40.2389 -91.6944 262° West 486 559 43,000  Level Kansas City Center
02:42PM 40.2153 -91.9031 262° West 487 560 43,000  Level Kansas City Center
02:43PM 40.1953 -92.0772 262° West 487 560 43,000  Level Kansas City Center
02:44PM 40.1756 -92.2519 262° West 487 560 43,000  Level Kansas City Center
02:45PM 40.1528 -92.4356 261° West 485 558 43,000  Level Kansas City Center
02:46PM 40.1328 -92.6039 261° West 488 562 43,000  Level Kansas City Center
02:47PM 40.0906 -92.7936 254° West 487 560 43,000  Level Kansas City Center
02:48PM 40.0578 -92.9469 254° West 486 559 43,000  Level Kansas City Center
02:49PM 40.0122 -93.1494 254° West 487 560 43,000  Level Kansas City Center
02:50PM 39.9767 -93.3183 255° West 487 560 43,000  Level Kansas City Center
02:51PM 39.9386 -93.4858 254° West 487 560 43,000  Level Kansas City Center
02:52PM 39.9014 -93.6517 254° West 483 556 43,000  Level Kansas City Center
02:53PM 39.8633 -93.8169 253° West 482 555 43,000  Level Kansas City Center
02:54PM 39.8192 -94.0139 254° West 476 548 43,000  Level Kansas City Center
02:55PM 39.7803 -94.1844 254° West 477 549 43,000  Level Kansas City Center
02:56PM 39.7439 -94.3403 253° West 473 544 43,000  Level Kansas City Center
02:58PM 39.7017 -94.5242 253° West 476 548 43,000  Level Kansas City Center
02:59PM 39.6644 -94.6806 253° West 475 547 43,000  Level Kansas City Center
03:00PM 39.6214 -94.8631 253° West 475 547 43,000  Level Kansas City Center
03:01PM 39.5833 -95.0206 253° West 479 551 43,000  Level Kansas City Center
03:02PM 39.5403 -95.2014 253° West 481 554 43,000  Level Kansas City Center
03:03PM 39.4981 -95.3772 253° West 478 550 43,000  Level Kansas City Center
03:04PM 39.4569 -95.5411 252° West 480 552 43,000  Level Kansas City Center
03:05PM 39.4189 -95.6986 253° West 483 556 43,000  Level Kansas City Center
03:06PM 39.3717 -95.8844 252° West 490 564 43,000  Level Kansas City Center
03:07PM 39.3328 -96.0425 252° West 486 559 43,000  Level Kansas City Center
03:08PM 39.2889 -96.2128 252° West 485 558 43,000  Level Kansas City Center
03:09PM 39.2467 -96.3856 253° West 485 558 43,000  Level Kansas City Center
03:10PM 39.1983 -96.5678 251° West 483 556 43,000  Level Kansas City Center
03:11PM 39.1586 -96.7267 252° West 484 557 43,000  Level Kansas City Center
03:12PM 39.1097 -96.9078 251° West 482 555 43,000  Level Kansas City Center
03:13PM 39.0703 -97.0661 252° West 484 557 43,100  Climbing Kansas City Center
03:14PM 39.0244 -97.2497 252° West 483 556 43,000 -60 Descending Kansas City Center
03:15PM 38.9831 -97.4072 251° West 484 557 43,000  Level Kansas City Center
03:16PM 38.9353 -97.5881 251° West 480 552 43,000  Level Kansas City Center
03:17PM 38.9089 -97.7475 258° West 478 550 43,000  Level Kansas City Center
03:18PM 38.8886 -97.9228 262° West 480 552 43,000  Level Kansas City Center
03:19PM 38.8686 -98.0903 261° West 478 550 43,000  Level Kansas City Center
03:20PM 38.8478 -98.2561 261° West 473 544 43,000  Level Kansas City Center
03:21PM 38.8269 -98.4222 261° West 474 545 43,000  Level Kansas City Center
03:22PM 38.8014 -98.6214 261° West 476 548 43,000 60 Level Kansas City Center
03:23PM 38.7794 -98.7847 260° West 470 541 43,200 300 Climbing Kansas City Center
03:24PM 38.7583 -98.9478 261° West 467 537 43,700 480 Climbing Kansas City Center
03:25PM 38.7375 -99.1119 261° West 468 539 44,200 480 Climbing Kansas City Center
03:27PM 38.7133 -99.2769 259° West 470 541 44,700 360 Climbing Kansas City Center
03:28PM 38.6911 -99.4372 260° West 465 535 45,000 180 Climbing Kansas City Center
03:28PM 38.6819 -99.5089 261° West 463 533 45,000  Level Denver Center
03:29PM 38.6786 -99.6656 268° West 460 529 45,000  Level Denver Center
03:30PM 38.6858 -99.8514 273° West 469 540 45,000  Level Denver Center
03:31PM 38.6906 -100.0100 272° West 468 539 45,000  Level Denver Center
03:32PM 38.6956 -100.1964 272° West 470 541 45,000  Level Denver Center
03:33PM 38.7014 -100.3567 273° West 472 543 45,000  Level Denver Center
03:34PM 38.7047 -100.5167 272° West 471 542 45,000  Level Denver Center
03:35PM 38.7100 -100.7031 272° West 472 543 45,000  Level Denver Center
03:36PM 38.7133 -100.8619 272° West 469 540 45,000  Level Denver Center
03:37PM 38.7169 -101.0483 271° West 471 542 45,000  Level Denver Center
03:38PM 38.7203 -101.2100 272° West 476 548 45,000  Level Denver Center
03:39PM 38.7239 -101.3978 271° West 474 545 45,000  Level Denver Center
03:40PM 38.7264 -101.5603 271° West 479 551 45,000  Level Denver Center
03:41PM 38.7297 -101.7481 271° West 475 547 45,000  Level Denver Center
03:42PM 38.7311 -101.9103 271° West 477 549 45,000  Level Denver Center
03:43PM 38.7333 -102.1003 271° West 480 552 45,000  Level Denver Center
03:44PM 38.7353 -102.2619 271° West 477 549 45,000  Level Denver Center
03:45PM 38.7378 -102.4242 271° West 477 549 45,000  Level Denver Center
03:46PM 38.7392 -102.6122 271° West 476 548 45,000  Level Denver Center
03:47PM 38.7403 -102.7719 271° West 476 548 45,000  Level Denver Center
03:48PM 38.7411 -102.9583 270° West 472 543 45,000  Level Denver Center
03:49PM 38.7414 -103.1181 270° West 470 541 45,000  Level Denver Center
03:50PM 38.7422 -103.3050 270° West 470 541 45,000  Level Denver Center
03:51PM 38.7428 -103.4661 270° West 474 545 45,000  Level Denver Center
03:52PM 38.7428 -103.6536 270° West 473 544 45,000  Level Denver Center
03:54PM 38.7428 -103.8156 270° West 477 549 45,000  Level Denver Center
03:55PM 38.7414 -104.0014 270° West 470 541 45,000  Level Denver Center
03:56PM 38.7414 -104.1617 270° West 469 540 45,000  Level Denver Center
03:57PM 38.7394 -104.3225 269° West 473 544 45,000  Level Denver Center
03:58PM 38.7375 -104.5067 269° West 468 539 45,000  Level Denver Center
03:59PM 38.7369 -104.6661 270° West 467 537 45,000  Level Denver Center
04:00PM 38.7350 -104.8772 269° West 466 536 45,000  Level Denver Center
04:01PM 38.7331 -105.0600 269° West 461 531 45,000  Level Denver Center
04:02PM 38.7311 -105.2189 269° West 461 531 45,000  Level Denver Center
04:03PM 38.7289 -105.3739 269° West 462 532 45,000  Level Denver Center
04:04PM 38.7253 -105.5581 269° West 462 532 45,000  Level Denver Center
04:05PM 38.7236 -105.7144 269° West 460 529 45,000 60 Level Denver Center
04:06PM 38.7200 -105.8942 269° West 454 522 45,200 360 Climbing Denver Center
04:07PM 38.7169 -106.0447 269° West 445 512 45,800 480 Climbing Denver Center
04:08PM 38.7142 -106.2106 269° West 440 506 46,200 420 Climbing Denver Center
04:09PM 38.7103 -106.3675 268° West 440 506 46,700 360 Climbing Denver Center
04:10PM 38.7064 -106.5228 268° West 435 501 47,000 120 Climbing Denver Center
04:11PM 38.7017 -106.6803 268° West 439 505 47,000  Level Denver Center
04:12PM 38.6972 -106.8406 268° West 446 513 47,000  Level Denver Center
04:13PM 38.6922 -107.0031 268° West 453 521 47,000  Level Denver Center
04:14PM 38.6867 -107.1633 268° West 449 517 47,000  Level Denver Center
04:15PM 38.6817 -107.3317 268° West 447 514 47,000  Level Denver Center
04:16PM 38.6758 -107.5092 268° West 446 513 47,000  Level Denver Center
04:17PM 38.6711 -107.6644 268° West 452 520 47,000  Level Denver Center
04:18PM 38.6639 -107.8461 267° West 456 525 47,000  Level Denver Center
04:19PM 38.6581 -108.0017 267° West 456 525 47,000  Level Denver Center
04:20PM 38.6528 -108.1561 268° West 454 522 47,000  Level Denver Center
04:21PM 38.6450 -108.3372 267° West 456 525 47,000  Level Denver Center
04:23PM 38.6394 -108.4917 267° West 454 522 47,000  Level Denver Center
04:24PM 38.6311 -108.6717 267° West 454 522 47,000  Level Denver Center
04:25PM 38.6244 -108.8256 267° West 452 520 47,000  Level Denver Center
04:26PM 38.6169 -108.9806 267° West 455 524 47,000  Level Denver Center
04:27PM 38.6086 -109.1597 267° West 452 520 47,000  Level Denver Center
04:28PM 38.6019 -109.3136 267° West 453 521 47,000  Level Denver Center
04:29PM 38.5919 -109.4914 266° West 451 519 47,000  Level Denver Center
04:30PM 38.5847 -109.6442 267° West 449 517 47,000  Level Denver Center
04:31PM 38.5753 -109.8250 266° West 454 522 47,000  Level Denver Center
04:32PM 38.5675 -109.9778 266° West 452 520 47,000  Level Denver Center
04:33PM 38.5586 -110.1294 266° West 450 518 47,000  Level Denver Center
04:33PM 38.5544 -110.2333 267° West 451 519 47,000  Level Salt Lake Center
04:34PM 38.5453 -110.3853 266° West 449 517 47,000  Level Salt Lake Center
04:35PM 38.5394 -110.4586 264° West 444 511 47,000  Level Denver Center
04:36PM 38.5294 -110.6358 266° West 447 514 47,000  Level Denver Center
04:36PM 38.5253 -110.7122 266° West 446 513 47,000  Level Salt Lake Center
04:37PM 38.5167 -110.8650 266° West 450 518 47,000  Level Salt Lake Center
04:38PM 38.5053 -111.0372 265° West 448 516 47,000  Level Salt Lake Center
04:39PM 38.4958 -111.1942 266° West 445 512 47,100 -60 Climbing Salt Lake Center
04:40PM 38.4850 -111.3511 265° West 445 512 46,900 -60 Descending Salt Lake Center
04:41PM 38.4742 -111.5036 265° West 437 503 47,000  Climbing Salt Lake Center
04:43PM 38.4642 -111.6592 265° West 440 506 47,000  Level Salt Lake Center
04:44PM 38.4531 -111.8147 265° West 441 507 47,100  Climbing Salt Lake Center
04:45PM 38.4417 -111.9717 265° West 445 512 47,000 -60 Descending Salt Lake Center
04:46PM 38.4286 -112.1586 265° West 445 512 47,000  Level Salt Lake Center
04:47PM 38.4167 -112.3131 264° West 442 509 47,000  Level Salt Lake Center
04:48PM 38.4056 -112.4658 265° West 437 503 47,000  Level Salt Lake Center
04:49PM 38.3931 -112.6203 264° West 439 505 47,000  Level Salt Lake Center
04:50PM 38.3800 -112.7753 264° West 442 509 47,000  Level Salt Lake Center
04:51PM 38.3683 -112.9289 265° West 440 506 47,000  Level Salt Lake Center
04:52PM 38.3561 -113.0844 264° West 442 509 47,000  Level Salt Lake Center
04:53PM 38.3422 -113.2703 265° West 443 510 47,000  Level Salt Lake Center
04:54PM 38.3303 -113.4256 264° West 442 509 47,000  Level Salt Lake Center
04:55PM 38.3183 -113.5828 265° West 448 516 47,000  Level Salt Lake Center
04:56PM 38.3061 -113.7389 264° West 446 513 47,000  Level Salt Lake Center
04:57PM 38.2936 -113.8964 264° West 449 517 47,000  Level Salt Lake Center
04:58PM 38.2806 -114.0531 264° West 448 516 47,000  Level Salt Lake Center
04:59PM 38.2669 -114.2119 264° West 452 520 47,000  Level Salt Lake Center
05:00PM 38.2522 -114.3697 263° West 452 520 47,000  Level Salt Lake Center
05:01PM 38.2403 -114.5586 265° West 450 518 47,000  Level Salt Lake Center
05:02PM 38.2319 -114.7169 266° West 451 519 47,000  Level Salt Lake Center
05:03PM 38.2208 -114.8761 265° West 453 521 47,000  Level Salt Lake Center
05:04PM 38.2106 -115.0369 265° West 456 525 47,000  Level Salt Lake Center
05:05PM 38.2008 -115.1953 266° West 452 520 47,000  Level Salt Lake Center
05:06PM 38.1889 -115.3758 265° West 450 518 47,000  Level Salt Lake Center
05:07PM 38.1772 -115.5344 265° West 450 518 47,000  Level Salt Lake Center
05:08PM 38.1667 -115.6903 265° West 445 512 47,000  Level Salt Lake Center
05:09PM 38.1556 -115.8494 265° West 451 519 47,000  Level Salt Lake Center
05:10PM 38.1433 -116.0089 264° West 453 521 47,000  Level Salt Lake Center
05:11PM 38.1319 -116.1683 265° West 453 521 47,000  Level Salt Lake Center
05:12PM 38.1200 -116.3272 265° West 453 521 47,000  Level Salt Lake Center
05:13PM 38.1158 -116.3908 265° West 450 518 47,000  Level Oakland Center
05:13PM 38.1078 -116.4858 264° West 452 520 47,000  Level Salt Lake Center
05:14PM 38.0950 -116.6458 264° West 454 522 47,000  Level Salt Lake Center
05:15PM 38.0828 -116.8061 265° West 455 524 47,000  Level Salt Lake Center
05:16PM 38.0675 -116.9978 264° West 453 521 47,000  Level Salt Lake Center
05:17PM 38.0650 -117.0311 265° West 454 522 47,000  Level Oakland Center
05:17PM 38.0542 -117.1631 264° West 457 526 47,000  Level Salt Lake Center
05:18PM 38.0503 -117.2108 264° West 460 529 47,000  Level Oakland Center
05:19PM 38.0375 -117.3628 264° West 462 532 47,000  Level Oakland Center
05:20PM 38.0239 -117.5253 264° West 461 531 47,000  Level Oakland Center
05:21PM 38.0106 -117.6853 264° West 456 525 47,000  Level Oakland Center
05:22PM 37.9983 -117.8789 265° West 458 527 47,000  Level Oakland Center
05:23PM 37.9936 -118.0417 268° West 461 531 47,000  Level Oakland Center
05:24PM 37.9864 -118.2036 267° West 459 528 47,000  Level Oakland Center
05:25PM 37.9803 -118.3639 267° West 456 525 47,000  Level Oakland Center
05:26PM 37.9744 -118.5239 267° West 455 524 47,000  Level Oakland Center
05:27PM 37.9667 -118.6856 267° West 459 528 47,000  Level Oakland Center
05:28PM 37.9600 -118.8444 267° West 453 521 47,000  Level Oakland Center
05:29PM 37.9536 -119.0058 267° West 456 525 47,000 -60 Level Oakland Center
05:30PM 37.9464 -119.1639 267° West 455 524 46,900 -1,320 Descending Oakland Center
05:31PM 37.9389 -119.3217 267° West 450 518 44,400 -2,640 Descending Oakland Center
05:32PM 37.9294 -119.5100 266° West 447 514 41,500 -2,640 Descending Oakland Center
05:33PM 37.9242 -119.6711 268° West 452 520 39,100 -2,400 Descending Oakland Center
05:34PM 37.9139 -119.8306 265° West 453 521 36,700 -2,400 Descending Oakland Center
05:35PM 37.9061 -119.9900 267° West 453 521 34,200 -2,460 Descending Oakland Center
05:36PM 37.8950 -120.1550 265° West 459 528 31,800 -2,400 Descending Oakland Center
05:37PM 37.8869 -120.3214 267° West 470 541 29,300 -2,520 Descending Oakland Center
05:38PM 37.8781 -120.4886 266° West 474 545 26,700 -2,700 Descending Oakland Center
05:39PM 37.8667 -120.6667 265° West 466 536 24,200 -2,820 Descending Northern Cal TRACON
05:40PM 37.8500 -120.8167 262° West 433 498 21,100 -2,940 Descending Northern Cal TRACON
05:41PM 37.8500 -120.9667 270° West 410 472 18,400 -2,760 Descending Northern Cal TRACON
05:42PM 37.8333 -121.1000 261° West 371 427 15,600 -2,520 Descending Northern Cal TRACON
05:43PM 37.8167 -121.2167 260° West 390 449 13,400 -2,160 Descending Northern Cal TRACON
05:44PM 37.7833 -121.3333 250° West 320 368 11,300 -1,500 Descending Northern Cal TRACON
05:45PM 37.7500 -121.4167 243° Southwest 298 343 10,500 -900 Descending Northern Cal TRACON
05:46PM 37.7167 -121.5167 247° West 297 342 9,600 -1,440 Descending Northern Cal TRACON
05:47PM 37.7000 -121.6167 258° West 288 331 7,700 -1,320 Descending Northern Cal TRACON
05:48PM 37.7000 -121.7167 270° West 284 327 7,000 -840 Descending Northern Cal TRACON
05:49PM 37.7167 -121.8167 282° West 277 319 6,100 -1,380 Descending Northern Cal TRACON
05:50PM 37.7167 -121.9167 270° West 274 315 4,200 -1,560 Descending Northern Cal TRACON
05:50PM 37.7125 -121.9203 214° Southwest 277 319 4,000 -420 Descending Oakland Center
05:51PM 37.7025 -122.0092 262° West 261 300 3,700 -960 Descending Oakland Center
05:52PM 37.6903 -122.1067 261° West 240 276 2,100 -1,500 Descending Oakland Center
05:53PM 37.7097 -122.1608 294° West 195 224 700 8,700 Descending Oakland Center
05:54PM 37.7228 -122.2031 291° West 156 180 20,000 18,960 Climbing Oakland Center
05:56PM 37.7167 -122.2167 270° West  Level FlightAware Approximate
06:03PM 37.7213 -122.2207 270° West  Level Estimated